createdAt,value
2023-01-02T00:03:55.737Z,100345.22
2023-01-02T00:08:57.338Z,100349.22
2023-01-02T00:13:58.944Z,100342.28
2023-01-02T00:19:00.510Z,100356.53
2023-01-02T00:24:02.233Z,100357.81
2023-01-02T00:29:03.910Z,100364.50
2023-01-02T00:34:05.541Z,100344.81
2023-01-02T00:39:07.157Z,100341.84
2023-01-02T00:44:08.717Z,100326.53
2023-01-02T00:49:10.373Z,100335.34
2023-01-02T00:54:11.964Z,100338.50
2023-01-02T00:59:13.564Z,100312.88
2023-01-02T01:04:15.490Z,100333.19
2023-01-02T01:09:18.132Z,100360.47
2023-01-02T01:14:19.813Z,100358.59
2023-01-02T01:19:21.401Z,100355.44
2023-01-02T01:24:23.043Z,100354.81
2023-01-02T01:29:24.588Z,100349.34
2023-01-02T01:34:26.142Z,100358.56
2023-01-02T01:39:27.715Z,100350.59
2023-01-02T01:44:46.597Z,100355.44
2023-01-02T01:49:51.624Z,100339.50
2023-01-02T01:54:59.241Z,100316.63
2023-01-02T02:00:01.927Z,100295.84
2023-01-02T02:05:06.579Z,100286.81
2023-01-02T02:10:11.111Z,100291.25
2023-01-02T02:15:20.029Z,100290.66
2023-01-02T02:20:39.399Z,100276.78
2023-01-02T02:26:09.005Z,100278.06
2023-01-02T02:31:17.344Z,100264.00
2023-01-02T02:36:26.112Z,100251.22
2023-01-02T02:41:57.082Z,100252.91
2023-01-02T02:47:14.094Z,100243.25
2023-01-02T02:52:23.160Z,100245.75
2023-01-02T02:57:25.470Z,100246.19
2023-01-02T03:02:27.245Z,100246.19
2023-01-02T03:07:58.893Z,100243.69
2023-01-02T03:13:10.312Z,100242.00
2023-01-02T03:18:56.203Z,100246.19
2023-01-02T03:24:01.997Z,100246.63
2023-01-02T03:29:31.984Z,100253.97
2023-01-02T03:34:36.561Z,100243.03
2023-01-02T03:39:47.281Z,100259.34
2023-01-02T03:44:57.963Z,100280.94
2023-01-02T03:50:04.249Z,100303.63
2023-01-02T03:55:07.228Z,100323.81
2023-01-02T04:00:11.272Z,100339.31
2023-01-02T04:05:31.910Z,100343.94
2023-01-02T04:10:37.356Z,100337.63
2023-01-02T04:15:41.269Z,100345.38
2023-01-02T04:20:49.900Z,100358.81
2023-01-02T04:26:04.969Z,100359.03
2023-01-02T04:31:19.072Z,100356.53
2023-01-02T04:36:21.162Z,100352.13
2023-01-02T04:41:28.425Z,100343.97
2023-01-02T04:46:30.237Z,100348.13
2023-01-02T04:51:31.884Z,100348.13
2023-01-02T04:56:33.525Z,100350.66
2023-01-02T05:01:35.216Z,100347.53
2023-01-02T05:06:36.791Z,100349.63
2023-01-02T05:11:38.394Z,100350.25
2023-01-02T05:16:39.933Z,100337.66
2023-01-02T05:22:00.123Z,100338.06
2023-01-02T05:27:01.708Z,100326.72
2023-01-02T05:32:03.324Z,100323.78
2023-01-02T05:37:04.926Z,100318.75
2023-01-02T05:42:06.569Z,100307.81
2023-01-02T05:47:10.887Z,100310.34
2023-01-02T05:52:15.095Z,100297.56
2023-01-02T05:57:16.766Z,100299.63
2023-01-02T06:02:18.472Z,100300.19
2023-01-02T06:07:20.215Z,100302.28
2023-01-02T06:12:21.761Z,100301.66
2023-01-02T06:17:23.368Z,100317.72
2023-01-02T06:22:24.985Z,100319.63
2023-01-02T06:27:26.545Z,100310.19
2023-01-02T06:32:28.322Z,100312.78
2023-01-02T06:37:29.870Z,100314.25
2023-01-02T06:42:33.150Z,100307.38
2023-01-02T06:47:34.894Z,100328.50
2023-01-02T06:52:36.594Z,100322.84
2023-01-02T06:57:38.171Z,100336.31
2023-01-02T07:02:42.131Z,100345.56
2023-01-02T07:07:44.992Z,100371.53
2023-01-02T07:12:46.579Z,100390.34
2023-01-02T07:17:48.099Z,100404.53
2023-01-02T07:22:54.312Z,100385.91
2023-01-02T07:27:55.981Z,100383.63
2023-01-02T07:32:57.514Z,100384.72
2023-01-02T07:37:59.065Z,100387.50
2023-01-02T07:43:00.639Z,100396.78
2023-01-02T07:48:02.245Z,100432.84
2023-01-02T07:53:03.792Z,100453.38
2023-01-02T07:58:05.390Z,100485.06
2023-01-02T08:03:06.981Z,100511.88
2023-01-02T08:08:09.599Z,100516.31
2023-01-02T08:13:11.172Z,100536.72
2023-01-02T08:18:12.732Z,100565.88
2023-01-02T08:23:14.353Z,100576.84
2023-01-02T08:28:16.222Z,100585.25
2023-01-02T08:33:17.887Z,100604.16
2023-01-02T08:38:19.879Z,100622.03
2023-01-02T08:43:21.480Z,100638.03
2023-01-02T08:48:23.137Z,100669.56
2023-01-02T08:53:24.790Z,100674.44
2023-01-02T08:58:26.958Z,100696.50
2023-01-02T09:03:28.627Z,100721.94
2023-01-02T09:08:31.587Z,100737.44
2023-01-02T09:13:33.117Z,100770.69
2023-01-02T09:18:34.919Z,100806.84
2023-01-02T09:23:36.512Z,100827.44
2023-01-02T09:28:38.221Z,100846.69
2023-01-02T09:33:41.565Z,100904.28
2023-01-02T09:38:43.694Z,100967.06
2023-01-02T09:44:18.546Z,101021.41
2023-01-02T09:49:23.184Z,101006.69
2023-01-02T09:54:31.992Z,100976.69
2023-01-02T09:59:49.079Z,100823.63
2023-01-02T10:05:20.550Z,100748.38
2023-01-02T10:10:54.493Z,100723.75
2023-01-02T10:16:00.389Z,100685.22
2023-01-02T10:21:10.238Z,100614.16
2023-01-02T10:26:25.467Z,100587.56
2023-01-02T10:31:56.572Z,100514.47
2023-01-02T10:37:01.824Z,100426.81
2023-01-02T10:42:11.728Z,100444.97
2023-01-02T10:47:43.048Z,100391.50
2023-01-02T10:53:05.777Z,100382.78
2023-01-02T10:58:24.344Z,100346.44
2023-01-02T11:03:26.126Z,100333.38
2023-01-02T11:08:37.963Z,100327.13
2023-01-02T11:13:53.797Z,100321.47
2023-01-02T11:18:58.793Z,100313.16
2023-01-02T11:24:04.294Z,100289.50
2023-01-02T11:29:12.310Z,100248.66
2023-01-02T11:34:22.865Z,100217.78
2023-01-02T11:39:24.842Z,100196.91
2023-01-02T11:44:38.691Z,100217.66
2023-01-02T11:49:44.080Z,100204.41
2023-01-02T11:54:56.267Z,100156.41
2023-01-02T12:00:01.456Z,100099.13
2023-01-02T12:05:10.466Z,100111.31
2023-01-02T12:10:20.493Z,100118.56
2023-01-02T12:15:48.224Z,100050.97
2023-01-02T12:21:05.235Z,100073.38
2023-01-02T12:26:21.727Z,100159.59
2023-01-02T12:31:41.267Z,100201.78
2023-01-02T12:37:03.356Z,100237.34
2023-01-02T12:42:28.626Z,100252.66
2023-01-02T12:47:51.691Z,100272.66
2023-01-02T12:53:08.430Z,100300.72
2023-01-02T12:58:19.910Z,100308.38
2023-01-02T13:04:00.670Z,100320.66
2023-01-02T13:09:14.620Z,100345.59
2023-01-02T13:14:32.940Z,100388.56
2023-01-02T13:19:51.143Z,100439.75
2023-01-02T13:24:53.389Z,100495.69
2023-01-02T13:29:55.114Z,100541.94
2023-01-02T13:35:01.526Z,100571.19
2023-01-02T13:40:04.538Z,100598.13
2023-01-02T13:45:13.620Z,100601.75
2023-01-02T13:50:23.939Z,100611.16
2023-01-02T13:55:31.591Z,100613.28
2023-01-02T14:00:39.515Z,100612.91
2023-01-02T14:05:59.483Z,100623.19
2023-01-02T14:11:10.077Z,100656.78
2023-01-02T14:16:36.127Z,100643.16
2023-01-02T14:21:40.835Z,100667.78
2023-01-02T14:26:42.525Z,100678.16
2023-01-02T14:31:44.364Z,100683.00
2023-01-02T14:36:49.462Z,100691.06
2023-01-02T14:42:09.667Z,100709.69
2023-01-02T14:47:15.381Z,100722.19
2023-01-02T14:52:26.399Z,100719.94
2023-01-02T14:57:38.099Z,100733.53
2023-01-02T15:02:44.539Z,100737.00
2023-01-02T15:07:51.636Z,100745.69
2023-01-02T15:13:04.261Z,100749.69
2023-01-02T15:18:12.753Z,100764.88
2023-01-02T15:23:21.291Z,100761.25
2023-01-02T15:28:22.801Z,100782.91
2023-01-02T15:33:29.582Z,100787.72
2023-01-02T15:38:32.122Z,100785.19
2023-01-02T15:43:53.928Z,100797.16
2023-01-02T15:48:56.262Z,100804.31
2023-01-02T15:54:03.163Z,100840.84
2023-01-02T15:59:24.887Z,100856.09
2023-01-02T16:04:32.584Z,100873.75
2023-01-02T16:09:34.335Z,100870.63
2023-01-02T16:14:41.587Z,100873.19
2023-01-02T16:19:58.846Z,100899.91
2023-01-02T16:25:05.421Z,100904.75
2023-01-02T16:30:25.408Z,100891.91
2023-01-02T16:35:34.388Z,100888.75
2023-01-02T16:41:01.909Z,100902.22
2023-01-02T16:46:08.670Z,100907.03
2023-01-02T16:51:10.616Z,100906.84
2023-01-02T16:56:12.835Z,100926.34
2023-01-02T17:01:16.410Z,100944.00
2023-01-02T17:06:19.104Z,100952.16
2023-01-02T17:11:23.239Z,100985.59
2023-01-02T17:16:24.882Z,100981.38
2023-01-02T17:21:32.565Z,100991.63
2023-01-02T17:26:34.700Z,101011.16
2023-01-02T17:31:37.262Z,101040.53
2023-01-02T17:36:38.876Z,101054.38
2023-01-02T17:41:40.464Z,101071.19
2023-01-02T17:47:15.323Z,101091.91
2023-01-02T17:52:03.850Z,101115.22
2023-01-02T17:57:06.286Z,101118.31
2023-01-02T18:02:08.323Z,101132.19
2023-01-02T18:07:14.935Z,101135.75
2023-01-02T18:12:16.634Z,101143.13
2023-01-02T18:17:25.490Z,101133.22
2023-01-02T18:22:31.620Z,101132.38
2023-01-02T18:27:34.948Z,101156.97
2023-01-02T18:32:38.919Z,101158.00
2023-01-02T18:37:41.156Z,101159.69
2023-01-02T18:42:44.952Z,101169.56
2023-01-02T18:47:48.944Z,101173.16
2023-01-02T18:52:51.575Z,101189.41
2023-01-02T18:58:09.268Z,101208.03
2023-01-02T19:03:19.286Z,101222.97
2023-01-02T19:08:25.157Z,101225.28
2023-01-02T19:13:34.739Z,101237.00
2023-01-02T19:18:56.409Z,101253.03
2023-01-02T19:24:04.993Z,101271.88
2023-01-02T19:29:09.571Z,101278.00
2023-01-02T19:34:27.671Z,101273.22
2023-01-02T19:39:52.430Z,101277.75
2023-01-02T19:44:58.412Z,101283.88
2023-01-02T19:50:01.536Z,101283.50
2023-01-02T19:55:04.967Z,101296.97
2023-01-02T20:00:12.344Z,101314.59
2023-01-02T20:05:21.130Z,101314.16
2023-01-02T20:10:23.871Z,101317.22
2023-01-02T20:15:27.140Z,101308.09
2023-01-02T20:20:29.712Z,101301.44
2023-01-02T20:25:31.443Z,101317.00
2023-01-02T20:30:33.059Z,101320.03
2023-01-02T20:35:34.701Z,101332.13
2023-01-02T20:40:36.504Z,101346.16
2023-01-02T20:45:38.083Z,101337.66
2023-01-02T20:50:39.753Z,101339.44
2023-01-02T20:55:41.641Z,101341.25
2023-01-02T21:00:43.314Z,101349.16
2023-01-02T21:05:45.232Z,101362.44
2023-01-02T21:10:46.945Z,101383.44
2023-01-02T21:15:52.033Z,101398.94
2023-01-02T21:20:57.426Z,101417.78
2023-01-02T21:25:59.420Z,101417.66
2023-01-02T21:31:01.595Z,101424.81
2023-01-02T21:36:05.090Z,101421.34
2023-01-02T21:41:25.233Z,101412.31
2023-01-02T21:46:26.946Z,101421.91
2023-01-02T21:51:32.788Z,101426.97
2023-01-02T21:56:34.728Z,101433.22
2023-01-02T22:01:36.450Z,101429.34
2023-01-02T22:07:04.346Z,101432.78
2023-01-02T22:12:02.057Z,101423.94
2023-01-02T22:17:09.133Z,101426.50
2023-01-02T22:22:10.947Z,101418.88
2023-01-02T22:27:14.690Z,101441.72
2023-01-02T22:32:16.604Z,101453.66
2023-01-02T22:37:22.407Z,101442.38
2023-01-02T22:43:03.980Z,101435.53
2023-01-02T22:48:19.610Z,101438.97
2023-01-02T22:53:27.787Z,101453.75
2023-01-02T22:58:29.642Z,101466.00
2023-01-02T23:03:37.968Z,101457.53
2023-01-02T23:08:39.655Z,101458.25
2023-01-02T23:13:42.316Z,101450.16
2023-01-02T23:19:02.878Z,101458.16
2023-01-02T23:24:06.661Z,101457.53
2023-01-02T23:29:09.224Z,101462.53
2023-01-02T23:34:14.367Z,101461.38
2023-01-02T23:39:18.600Z,101455.63
2023-01-02T23:44:21.996Z,101444.25
2023-01-02T23:49:24.541Z,101463.28
2023-01-02T23:54:26.291Z,101456.50
2023-01-02T23:59:28.060Z,101457.53
